sensor_id;sensor_type;location;lat;lon;timestamp;pressure;altitude;pressure_sealevel;temperature;humidity
71764;BME280;59602;52.142;5.408;2023-04-08T00:00:21;102424.66;;;8.45;97.81
71764;BME280;59602;52.142;5.408;2023-04-08T00:02:48;102424.66;;;8.45;97.69
71764;BME280;59602;52.142;5.408;2023-04-08T00:05:14;102426.59;;;8.44;97.98
71764;BME280;59602;52.142;5.408;2023-04-08T00:07:41;102427.69;;;8.43;97.54
71764;BME280;59602;52.142;5.408;2023-04-08T00:10:08;102436.78;;;8.39;97.51
71764;BME280;59602;52.142;5.408;2023-04-08T00:12:34;102432.50;;;8.38;97.42
71764;BME280;59602;52.142;5.408;2023-04-08T00:15:01;102433.59;;;8.37;97.74
71764;BME280;59602;52.142;5.408;2023-04-08T00:17:28;102429.78;;;8.38;97.77
71764;BME280;59602;52.142;5.408;2023-04-08T00:19:54;102434.84;;;8.39;97.39
71764;BME280;59602;52.142;5.408;2023-04-08T00:22:22;102431.84;;;8.41;97.52
71764;BME280;59602;52.142;5.408;2023-04-08T00:24:48;102434.84;;;8.39;97.74
71764;BME280;59602;52.142;5.408;2023-04-08T00:27:15;102428.53;;;8.35;97.71
71764;BME280;59602;52.142;5.408;2023-04-08T00:29:41;102430.91;;;8.28;97.46
71764;BME280;59602;52.142;5.408;2023-04-08T00:32:08;102425.19;;;8.21;97.61
71764;BME280;59602;52.142;5.408;2023-04-08T00:34:35;102432.84;;;8.19;97.63
71764;BME280;59602;52.142;5.408;2023-04-08T00:37:02;102432.72;;;8.15;97.30
71764;BME280;59602;52.142;5.408;2023-04-08T00:39:29;102442.25;;;8.13;97.32
71764;BME280;59602;52.142;5.408;2023-04-08T00:41:55;102433.69;;;8.10;97.13
71764;BME280;59602;52.142;5.408;2023-04-08T00:44:22;102433.69;;;8.10;97.47
71764;BME280;59602;52.142;5.408;2023-04-08T00:46:49;102437.97;;;8.11;97.39
71764;BME280;59602;52.142;5.408;2023-04-08T00:49:16;102445.31;;;8.11;97.71
71764;BME280;59602;52.142;5.408;2023-04-08T00:51:42;102445.44;;;8.15;97.78
71764;BME280;59602;52.142;5.408;2023-04-08T00:54:09;102440.50;;;8.17;97.65
71764;BME280;59602;52.142;5.408;2023-04-08T00:56:36;102438.63;;;8.17;97.33
71764;BME280;59602;52.142;5.408;2023-04-08T00:59:03;102447.06;;;8.16;97.29
71764;BME280;59602;52.142;5.408;2023-04-08T01:04:21;102446.41;;;8.10;97.35
71764;BME280;59602;52.142;5.408;2023-04-08T01:07:00;102444.84;;;8.09;97.57
71764;BME280;59602;52.142;5.408;2023-04-08T01:09:32;102452.34;;;8.03;97.20
71764;BME280;59602;52.142;5.408;2023-04-08T01:12:04;102456.16;;;8.02;97.46
71764;BME280;59602;52.142;5.408;2023-04-08T01:14:34;102457.63;;;8.00;97.11
71764;BME280;59602;52.142;5.408;2023-04-08T01:17:04;102461.09;;;8.00;97.25
71764;BME280;59602;52.142;5.408;2023-04-08T01:19:38;102461.75;;;7.97;97.13
71764;BME280;59602;52.142;5.408;2023-04-08T01:24:59;102462.41;;;7.85;97.02
71764;BME280;59602;52.142;5.408;2023-04-08T01:27:30;102461.78;;;7.88;97.28
71764;BME280;59602;52.142;5.408;2023-04-08T01:29:58;102456.84;;;7.90;97.06
71764;BME280;59602;52.142;5.408;2023-04-08T01:32:26;102460.03;;;7.84;96.88
71764;BME280;59602;52.142;5.408;2023-04-08T01:34:55;102457.94;;;7.81;97.02
71764;BME280;59602;52.142;5.408;2023-04-08T01:37:24;102457.94;;;7.81;96.98
71764;BME280;59602;52.142;5.408;2023-04-08T01:39:53;102457.63;;;7.82;97.20
71764;BME280;59602;52.142;5.408;2023-04-08T01:42:23;102454.94;;;7.82;97.08
71764;BME280;59602;52.142;5.408;2023-04-08T01:44:51;102459.84;;;7.80;97.02
71764;BME280;59602;52.142;5.408;2023-04-08T01:47:21;102463.03;;;7.82;96.85
71764;BME280;59602;52.142;5.408;2023-04-08T01:49:51;102466.53;;;7.83;97.12
71764;BME280;59602;52.142;5.408;2023-04-08T01:52:19;102464.16;;;7.81;97.19
71764;BME280;59602;52.142;5.408;2023-04-08T01:54:46;102468.16;;;7.84;97.16
71764;BME280;59602;52.142;5.408;2023-04-08T01:57:18;102468.16;;;7.84;97.13
71764;BME280;59602;52.142;5.408;2023-04-08T01:59:51;102471.16;;;7.82;97.36
71764;BME280;59602;52.142;5.408;2023-04-08T02:02:20;102470.69;;;7.80;97.44
71764;BME280;59602;52.142;5.408;2023-04-08T02:04:48;102461.00;;;7.79;97.40
71764;BME280;59602;52.142;5.408;2023-04-08T02:07:15;102463.84;;;7.83;97.34
71764;BME280;59602;52.142;5.408;2023-04-08T02:09:43;102457.63;;;7.82;97.53
71764;BME280;59602;52.142;5.408;2023-04-08T02:12:09;102460.81;;;7.84;97.66
71764;BME280;59602;52.142;5.408;2023-04-08T02:14:37;102468.63;;;7.86;97.69
71764;BME280;59602;52.142;5.408;2023-04-08T02:17:09;102461.59;;;7.85;97.87
71764;BME280;59602;52.142;5.408;2023-04-08T02:19:52;102462.88;;;7.87;97.84
71764;BME280;59602;52.142;5.408;2023-04-08T02:22:40;102465.44;;;7.84;97.68
71764;BME280;59602;52.142;5.408;2023-04-08T02:25:12;102468.16;;;7.84;97.74
71764;BME280;59602;52.142;5.408;2023-04-08T02:27:39;102465.59;;;7.79;97.59
71764;BME280;59602;52.142;5.408;2023-04-08T02:30:09;102471.34;;;7.77;97.88
71764;BME280;59602;52.142;5.408;2023-04-08T02:32:37;102471.66;;;7.76;97.58
71764;BME280;59602;52.142;5.408;2023-04-08T02:35:04;102477.53;;;7.69;97.50
71764;BME280;59602;52.142;5.408;2023-04-08T02:37:32;102472.13;;;7.69;97.58
71764;BME280;59602;52.142;5.408;2023-04-08T02:39:59;102471.00;;;7.70;97.80
71764;BME280;59602;52.142;5.408;2023-04-08T02:42:25;102469.25;;;7.74;97.54
71764;BME280;59602;52.142;5.408;2023-04-08T02:44:52;102479.78;;;7.76;97.40
71764;BME280;59602;52.142;5.408;2023-04-08T02:47:19;102477.38;;;7.74;97.31
71764;BME280;59602;52.142;5.408;2023-04-08T02:49:46;102476.28;;;7.66;97.10
71764;BME280;59602;52.142;5.408;2023-04-08T02:52:12;102478.69;;;7.68;97.18
71764;BME280;59602;52.142;5.408;2023-04-08T02:54:39;102474.84;;;7.69;97.23
71764;BME280;59602;52.142;5.408;2023-04-08T02:57:06;102488.69;;;7.67;96.55
71764;BME280;59602;52.142;5.408;2023-04-08T02:59:32;102492.81;;;7.65;96.52
71764;BME280;59602;52.142;5.408;2023-04-08T03:01:59;102498.09;;;7.61;96.62
71764;BME280;59602;52.142;5.408;2023-04-08T03:04:26;102499.19;;;7.60;96.42
71764;BME280;59602;52.142;5.408;2023-04-08T03:06:52;102498.41;;;7.60;96.57
71764;BME280;59602;52.142;5.408;2023-04-08T03:09:19;102498.72;;;7.58;96.84
71764;BME280;59602;52.142;5.408;2023-04-08T03:11:46;102499.50;;;7.59;96.78
71764;BME280;59602;52.142;5.408;2023-04-08T03:14:17;102500.63;;;7.58;96.65
71764;BME280;59602;52.142;5.408;2023-04-08T03:16:44;102493.94;;;7.55;96.62
71764;BME280;59602;52.142;5.408;2023-04-08T03:19:11;102499.84;;;7.48;96.54
71764;BME280;59602;52.142;5.408;2023-04-08T03:21:37;102494.41;;;7.48;96.66
71764;BME280;59602;52.142;5.408;2023-04-08T03:24:04;102496.34;;;7.48;96.83
71764;BME280;59602;52.142;5.408;2023-04-08T03:26:31;102484.06;;;7.51;96.83
71764;BME280;59602;52.142;5.408;2023-04-08T03:28:57;102490.44;;;7.46;96.82
71764;BME280;59602;52.142;5.408;2023-04-08T03:31:24;102498.06;;;7.44;96.95
71764;BME280;59602;52.142;5.408;2023-04-08T03:33:51;102497.75;;;7.45;96.52
71764;BME280;59602;52.142;5.408;2023-04-08T03:36:18;102497.25;;;7.43;96.51
71764;BME280;59602;52.142;5.408;2023-04-08T03:38:44;102496.47;;;7.43;96.92
71764;BME280;59602;52.142;5.408;2023-04-08T03:41:11;102499.19;;;7.43;96.77
71764;BME280;59602;52.142;5.408;2023-04-08T03:43:38;102496.81;;;7.41;96.78
71764;BME280;59602;52.142;5.408;2023-04-08T03:46:04;102502.38;;;7.45;96.57
71764;BME280;59602;52.142;5.408;2023-04-08T03:48:31;102501.75;;;7.48;96.73
71764;BME280;59602;52.142;5.408;2023-04-08T03:50:57;102502.53;;;7.48;97.13
71764;BME280;59602;52.142;5.408;2023-04-08T03:53:24;102500.44;;;7.45;96.58
71764;BME280;59602;52.142;5.408;2023-04-08T03:55:53;102502.69;;;7.35;96.17
71764;BME280;59602;52.142;5.408;2023-04-08T03:58:20;102508.41;;;7.33;96.38
71764;BME280;59602;52.142;5.408;2023-04-08T04:00:47;102506.78;;;7.32;96.68
71764;BME280;59602;52.142;5.408;2023-04-08T04:03:13;102511.28;;;7.37;96.71
71764;BME280;59602;52.142;5.408;2023-04-08T04:05:40;102513.16;;;7.36;96.47
71764;BME280;59602;52.142;5.408;2023-04-08T04:08:07;102522.41;;;7.35;96.53
71764;BME280;59602;52.142;5.408;2023-04-08T04:10:34;102518.75;;;7.31;96.21
71764;BME280;59602;52.142;5.408;2023-04-08T04:13:01;102523.03;;;7.32;96.07
71764;BME280;59602;52.142;5.408;2023-04-08T04:15:27;102531.16;;;7.32;96.07
71764;BME280;59602;52.142;5.408;2023-04-08T04:17:54;102536.72;;;7.27;95.33
71764;BME280;59602;52.142;5.408;2023-04-08T04:20:21;102531.75;;;7.20;94.88
71764;BME280;59602;52.142;5.408;2023-04-08T04:22:47;102538.13;;;7.16;94.58
71764;BME280;59602;52.142;5.408;2023-04-08T04:25:14;102550.38;;;7.13;94.38
71764;BME280;59602;52.142;5.408;2023-04-08T04:27:40;102541.28;;;7.09;94.41
71764;BME280;59602;52.142;5.408;2023-04-08T04:30:07;102541.56;;;7.07;93.58
71764;BME280;59602;52.142;5.408;2023-04-08T04:32:35;102544.91;;;7.04;93.69
71764;BME280;59602;52.142;5.408;2023-04-08T04:35:01;102551.75;;;7.02;93.50
71764;BME280;59602;52.142;5.408;2023-04-08T04:37:28;102550.28;;;6.96;93.38
71764;BME280;59602;52.142;5.408;2023-04-08T04:39:55;102552.19;;;6.95;93.41
71764;BME280;59602;52.142;5.408;2023-04-08T04:42:21;102550.13;;;6.92;93.35
71764;BME280;59602;52.142;5.408;2023-04-08T04:44:48;102554.72;;;6.92;93.26
71764;BME280;59602;52.142;5.408;2023-04-08T04:47:14;102558.84;;;6.89;93.26
71764;BME280;59602;52.142;5.408;2023-04-08T04:49:41;102564.56;;;6.88;93.09
71764;BME280;59602;52.142;5.408;2023-04-08T04:52:08;102562.78;;;6.83;93.04
71764;BME280;59602;52.142;5.408;2023-04-08T04:54:35;102566.56;;;6.73;92.30
71764;BME280;59602;52.142;5.408;2023-04-08T04:57:01;102573.84;;;6.64;92.24
71764;BME280;59602;52.142;5.408;2023-04-08T04:59:28;102577.16;;;6.61;92.52
71764;BME280;59602;52.142;5.408;2023-04-08T05:01:54;102583.19;;;6.58;92.51
71764;BME280;59602;52.142;5.408;2023-04-08T05:04:24;102582.38;;;6.57;92.70
71764;BME280;59602;52.142;5.408;2023-04-08T05:06:51;102590.78;;;6.56;92.95
71764;BME280;59602;52.142;5.408;2023-04-08T05:09:17;102590.28;;;6.54;92.56
71764;BME280;59602;52.142;5.408;2023-04-08T05:11:44;102584.88;;;6.54;92.86
71764;BME280;59602;52.142;5.408;2023-04-08T05:14:10;102591.41;;;6.53;92.81
71764;BME280;59602;52.142;5.408;2023-04-08T05:16:37;102588.03;;;6.47;92.36
71764;BME280;59602;52.142;5.408;2023-04-08T05:19:04;102592.94;;;6.45;92.32
71764;BME280;59602;52.142;5.408;2023-04-08T05:21:31;102587.06;;;6.43;92.28
71764;BME280;59602;52.142;5.408;2023-04-08T05:23:58;102593.88;;;6.40;92.62
71764;BME280;59602;52.142;5.408;2023-04-08T05:26:24;102600.19;;;6.36;92.38
71764;BME280;59602;52.142;5.408;2023-04-08T05:28:51;102596.50;;;6.32;92.30
71764;BME280;59602;52.142;5.408;2023-04-08T05:31:18;102597.31;;;6.32;92.19
71764;BME280;59602;52.142;5.408;2023-04-08T05:33:46;102598.09;;;6.33;92.61
71764;BME280;59602;52.142;5.408;2023-04-08T05:36:13;102601.09;;;6.31;92.10
71764;BME280;59602;52.142;5.408;2023-04-08T05:38:40;102600.59;;;6.29;92.33
71764;BME280;59602;52.142;5.408;2023-04-08T05:41:09;102604.44;;;6.28;91.69
71764;BME280;59602;52.142;5.408;2023-04-08T05:43:35;102603.63;;;6.28;91.47
71764;BME280;59602;52.142;5.408;2023-04-08T05:46:07;102604.44;;;6.28;91.23
71764;BME280;59602;52.142;5.408;2023-04-08T05:48:34;102606.63;;;6.26;91.20
71764;BME280;59602;52.142;5.408;2023-04-08T05:51:01;102612.34;;;6.24;90.64
71764;BME280;59602;52.142;5.408;2023-04-08T05:53:29;102610.25;;;6.21;90.67
71764;BME280;59602;52.142;5.408;2023-04-08T05:55:56;102618.06;;;6.23;90.08
71764;BME280;59602;52.142;5.408;2023-04-08T05:58:23;102615.81;;;6.25;89.87
71764;BME280;59602;52.142;5.408;2023-04-08T06:00:49;102619.66;;;6.24;89.24
71764;BME280;59602;52.142;5.408;2023-04-08T06:03:16;102612.34;;;6.24;89.23
71764;BME280;59602;52.142;5.408;2023-04-08T06:05:45;102617.44;;;6.26;89.19
71764;BME280;59602;52.142;5.408;2023-04-08T06:08:12;102615.81;;;6.25;88.79
71764;BME280;59602;52.142;5.408;2023-04-08T06:10:39;102613.63;;;6.27;88.98
71764;BME280;59602;52.142;5.408;2023-04-08T06:13:05;102622.22;;;6.29;88.58
71764;BME280;59602;52.142;5.408;2023-04-08T06:15:32;102618.72;;;6.29;88.16
71764;BME280;59602;52.142;5.408;2023-04-08T06:17:59;102625.41;;;6.31;88.04
71764;BME280;59602;52.142;5.408;2023-04-08T06:20:25;102622.13;;;6.34;87.37
71764;BME280;59602;52.142;5.408;2023-04-08T06:22:52;102625.78;;;6.38;87.08
71764;BME280;59602;52.142;5.408;2023-04-08T06:25:19;102622.00;;;6.39;86.94
71764;BME280;59602;52.142;5.408;2023-04-08T06:27:45;102627.41;;;6.39;86.18
71764;BME280;59602;52.142;5.408;2023-04-08T06:30:13;102636.00;;;6.41;86.01
71764;BME280;59602;52.142;5.408;2023-04-08T06:32:41;102649.38;;;6.47;86.38
71764;BME280;59602;52.142;5.408;2023-04-08T06:35:08;102652.44;;;6.54;86.74
71764;BME280;59602;52.142;5.408;2023-04-08T06:37:34;102651.03;;;6.56;85.99
71764;BME280;59602;52.142;5.408;2023-04-08T06:40:04;102653.63;;;6.61;85.41
71764;BME280;59602;52.142;5.408;2023-04-08T06:42:32;102661.91;;;6.65;84.57
71764;BME280;59602;52.142;5.408;2023-04-08T06:44:58;102675.00;;;6.72;84.37
71764;BME280;59602;52.142;5.408;2023-04-08T06:47:25;102663.31;;;6.85;85.52
71764;BME280;59602;52.142;5.408;2023-04-08T06:49:51;102678.50;;;6.95;83.96
71764;BME280;59602;52.142;5.408;2023-04-08T06:52:19;102680.44;;;7.03;83.49
71764;BME280;59602;52.142;5.408;2023-04-08T06:54:46;102670.47;;;7.12;83.45
71764;BME280;59602;52.142;5.408;2023-04-08T06:57:13;102678.47;;;7.17;82.61
71764;BME280;59602;52.142;5.408;2023-04-08T06:59:40;102678.03;;;7.24;81.78
71764;BME280;59602;52.142;5.408;2023-04-08T07:02:06;102684.78;;;7.35;81.92
71764;BME280;59602;52.142;5.408;2023-04-08T07:04:33;102679.50;;;7.39;80.98
71764;BME280;59602;52.142;5.408;2023-04-08T07:07:00;102684.81;;;7.44;80.69
71764;BME280;59602;52.142;5.408;2023-04-08T07:09:26;102691.53;;;7.55;80.66
71764;BME280;59602;52.142;5.408;2023-04-08T07:11:53;102691.72;;;7.67;80.46
71764;BME280;59602;52.142;5.408;2023-04-08T07:14:22;102696.34;;;7.67;79.84
71764;BME280;59602;52.142;5.408;2023-04-08T07:16:48;102693.69;;;7.76;79.58
71764;BME280;59602;52.142;5.408;2023-04-08T07:19:15;102695.94;;;7.82;79.02
71764;BME280;59602;52.142;5.408;2023-04-08T07:21:41;102702.34;;;7.95;79.87
71764;BME280;59602;52.142;5.408;2023-04-08T07:24:08;102703.44;;;7.94;77.48
71764;BME280;59602;52.142;5.408;2023-04-08T07:26:34;102711.06;;;7.83;77.44
71764;BME280;59602;52.142;5.408;2023-04-08T07:29:01;102717.66;;;8.00;78.84
71764;BME280;59602;52.142;5.408;2023-04-08T07:31:27;102719.75;;;8.11;77.92
71764;BME280;59602;52.142;5.408;2023-04-08T07:33:54;102719.09;;;8.15;76.90
71764;BME280;59602;52.142;5.408;2023-04-08T07:36:21;102719.94;;;8.24;77.36
71764;BME280;59602;52.142;5.408;2023-04-08T07:38:48;102733.31;;;8.29;77.20
71764;BME280;59602;52.142;5.408;2023-04-08T07:41:15;102721.56;;;8.42;77.56
71764;BME280;59602;52.142;5.408;2023-04-08T07:43:42;102723.94;;;8.52;76.47
71764;BME280;59602;52.142;5.408;2023-04-08T07:46:08;102725.25;;;8.55;75.31
71764;BME280;59602;52.142;5.408;2023-04-08T07:48:35;102728.28;;;8.54;76.19
71764;BME280;59602;52.142;5.408;2023-04-08T07:51:03;102722.84;;;8.45;74.70
71764;BME280;59602;52.142;5.408;2023-04-08T07:53:35;102721.56;;;8.42;74.58
71764;BME280;59602;52.142;5.408;2023-04-08T07:56:02;102726.19;;;8.42;74.21
71764;BME280;59602;52.142;5.408;2023-04-08T07:58:29;102721.72;;;8.46;74.34
71764;BME280;59602;52.142;5.408;2023-04-08T08:00:57;102730.19;;;8.53;74.43
71764;BME280;59602;52.142;5.408;2023-04-08T08:03:24;102729.84;;;8.55;73.56
71764;BME280;59602;52.142;5.408;2023-04-08T08:05:52;102727.16;;;8.63;74.10
71764;BME280;59602;52.142;5.408;2023-04-08T08:08:18;102723.78;;;8.75;74.92
71764;BME280;59602;52.142;5.408;2023-04-08T08:10:45;102732.09;;;8.79;73.42
71764;BME280;59602;52.142;5.408;2023-04-08T08:13:11;102735.59;;;8.70;74.48
71764;BME280;59602;52.142;5.408;2023-04-08T08:15:42;102740.72;;;8.81;75.91
71764;BME280;59602;52.142;5.408;2023-04-08T08:18:09;102736.88;;;8.90;75.49
71764;BME280;59602;52.142;5.408;2023-04-08T08:20:38;102727.63;;;8.91;74.46
71764;BME280;59602;52.142;5.408;2023-04-08T08:23:05;102728.91;;;8.77;73.87
71764;BME280;59602;52.142;5.408;2023-04-08T08:25:31;102728.75;;;8.73;74.45
71764;BME280;59602;52.142;5.408;2023-04-08T08:27:58;102738.00;;;8.81;74.77
71764;BME280;59602;52.142;5.408;2023-04-08T08:30:25;102738.00;;;8.89;75.20
71764;BME280;59602;52.142;5.408;2023-04-08T08:32:52;102739.09;;;8.97;74.22
71764;BME280;59602;52.142;5.408;2023-04-08T08:35:19;102740.03;;;9.10;74.48
71764;BME280;59602;52.142;5.408;2023-04-08T08:37:46;102749.75;;;9.20;74.35
71764;BME280;59602;52.142;5.408;2023-04-08T08:40:12;102736.34;;;9.23;74.55
71764;BME280;59602;52.142;5.408;2023-04-08T08:42:39;102744.78;;;9.30;74.27
71764;BME280;59602;52.142;5.408;2023-04-08T08:45:10;102740.00;;;9.36;74.27
71764;BME280;59602;52.142;5.408;2023-04-08T08:47:37;102747.47;;;9.39;74.21
71764;BME280;59602;52.142;5.408;2023-04-08T08:50:04;102740.47;;;9.38;74.76
71764;BME280;59602;52.142;5.408;2023-04-08T08:52:32;102744.91;;;9.43;74.30
71764;BME280;59602;52.142;5.408;2023-04-08T08:54:59;102734.66;;;9.48;75.14
71764;BME280;59602;52.142;5.408;2023-04-08T08:57:26;102746.00;;;9.50;74.41
71764;BME280;59602;52.142;5.408;2023-04-08T08:59:54;102757.16;;;9.57;76.26
71764;BME280;59602;52.142;5.408;2023-04-08T09:02:25;102755.56;;;9.56;73.46
71764;BME280;59602;52.142;5.408;2023-04-08T09:04:58;102759.09;;;9.48;72.44
71764;BME280;59602;52.142;5.408;2023-04-08T09:07:27;102760.88;;;9.44;73.90
71764;BME280;59602;52.142;5.408;2023-04-08T09:09:55;102750.47;;;9.55;73.40
71764;BME280;59602;52.142;5.408;2023-04-08T09:12:23;102756.16;;;9.62;72.88
71764;BME280;59602;52.142;5.408;2023-04-08T09:14:50;102761.91;;;9.69;73.42
71764;BME280;59602;52.142;5.408;2023-04-08T09:17:45;102758.97;;;9.83;73.62
71764;BME280;59602;52.142;5.408;2023-04-08T09:20:12;102759.13;;;9.87;73.06
71764;BME280;59602;52.142;5.408;2023-04-08T09:25:24;102773.75;;;10.03;70.80
71764;BME280;59602;52.142;5.408;2023-04-08T09:27:51;102762.50;;;10.13;71.28
71764;BME280;59602;52.142;5.408;2023-04-08T09:30:21;102760.06;;;10.21;70.54
71764;BME280;59602;52.142;5.408;2023-04-08T09:32:50;102768.22;;;10.21;70.86
71764;BME280;59602;52.142;5.408;2023-04-08T09:35:18;102770.31;;;10.15;71.25
71764;BME280;59602;52.142;5.408;2023-04-08T09:37:45;102769.97;;;10.25;72.04
71764;BME280;59602;52.142;5.408;2023-04-08T09:40:12;102778.09;;;10.34;71.35
71764;BME280;59602;52.142;5.408;2023-04-08T09:42:46;102781.66;;;10.47;70.08
71764;BME280;59602;52.142;5.408;2023-04-08T09:45:16;102780.34;;;10.53;70.96
71764;BME280;59602;52.142;5.408;2023-04-08T09:47:56;102778.03;;;10.64;70.46
71764;BME280;59602;52.142;5.408;2023-04-08T09:50:31;102788.47;;;10.62;69.08
71764;BME280;59602;52.142;5.408;2023-04-08T09:53:01;102771.09;;;10.54;69.05
71764;BME280;59602;52.142;5.408;2023-04-08T09:55:35;102774.38;;;10.59;69.57
71764;BME280;59602;52.142;5.408;2023-04-08T09:58:10;102783.88;;;10.74;69.87
71764;BME280;59602;52.142;5.408;2023-04-08T10:00:46;102782.81;;;10.88;69.40
71764;BME280;59602;52.142;5.408;2023-04-08T10:03:28;102774.28;;;10.89;67.90
71764;BME280;59602;52.142;5.408;2023-04-08T10:05:55;102780.66;;;10.93;67.59
71764;BME280;59602;52.142;5.408;2023-04-08T10:08:24;102773.44;;;10.97;67.10
71764;BME280;59602;52.142;5.408;2023-04-08T10:10:52;102776.53;;;11.08;67.07
71764;BME280;59602;52.142;5.408;2023-04-08T10:13:20;102766.69;;;11.16;65.79
71764;BME280;59602;52.142;5.408;2023-04-08T10:16:21;102768.31;;;11.29;67.93
71764;BME280;59602;52.142;5.408;2023-04-08T10:18:48;102774.03;;;11.36;65.49
71764;BME280;59602;52.142;5.408;2023-04-08T10:21:46;102769.84;;;11.39;65.40
71764;BME280;59602;52.142;5.408;2023-04-08T10:24:16;102772.00;;;11.46;64.36
71764;BME280;59602;52.142;5.408;2023-04-08T10:26:44;102771.09;;;11.54;64.60
71764;BME280;59602;52.142;5.408;2023-04-08T10:31:44;102762.84;;;11.75;63.24
71764;BME280;59602;52.142;5.408;2023-04-08T10:36:44;102763.44;;;11.93;63.90
71764;BME280;59602;52.142;5.408;2023-04-08T10:39:12;102771.84;;;12.00;61.60
71764;BME280;59602;52.142;5.408;2023-04-08T10:41:41;102772.19;;;12.11;60.38
71764;BME280;59602;52.142;5.408;2023-04-08T10:44:21;102773.75;;;12.24;61.62
71764;BME280;59602;52.142;5.408;2023-04-08T10:46:49;102764.06;;;12.39;61.77
71764;BME280;59602;52.142;5.408;2023-04-08T10:49:17;102764.28;;;12.46;60.75
71764;BME280;59602;52.142;5.408;2023-04-08T10:51:45;102762.03;;;12.48;59.54
71764;BME280;59602;52.142;5.408;2023-04-08T10:54:14;102758.47;;;12.48;59.24
71764;BME280;59602;52.142;5.408;2023-04-08T10:56:44;102759.50;;;12.55;61.23
71764;BME280;59602;52.142;5.408;2023-04-08T10:59:12;102760.47;;;12.63;60.11
71764;BME280;59602;52.142;5.408;2023-04-08T11:01:43;102757.63;;;12.72;59.54
71764;BME280;59602;52.142;5.408;2023-04-08T11:04:13;102747.78;;;12.83;59.27
71764;BME280;59602;52.142;5.408;2023-04-08T11:06:42;102762.78;;;12.89;56.81
71764;BME280;59602;52.142;5.408;2023-04-08T11:09:09;102747.97;;;12.90;58.00
71764;BME280;59602;52.142;5.408;2023-04-08T11:11:36;102748.44;;;12.92;57.40
71764;BME280;59602;52.142;5.408;2023-04-08T11:14:04;102753.75;;;13.01;58.74
71764;BME280;59602;52.142;5.408;2023-04-08T11:16:37;102747.78;;;13.11;58.96
71764;BME280;59602;52.142;5.408;2023-04-08T11:19:05;102755.38;;;13.18;56.45
71764;BME280;59602;52.142;5.408;2023-04-08T11:21:34;102749.81;;;13.14;56.44
71764;BME280;59602;52.142;5.408;2023-04-08T11:24:14;102751.75;;;13.14;57.65
71764;BME280;59602;52.142;5.408;2023-04-08T11:26:42;102754.41;;;13.26;58.11
71764;BME280;59602;52.142;5.408;2023-04-08T11:29:10;102743.25;;;13.31;55.10
71764;BME280;59602;52.142;5.408;2023-04-08T11:31:41;102739.50;;;13.23;55.25
71764;BME280;59602;52.142;5.408;2023-04-08T11:34:09;102742.94;;;13.20;52.29
71764;BME280;59602;52.142;5.408;2023-04-08T11:36:44;102744.63;;;13.25;53.28
71764;BME280;59602;52.142;5.408;2023-04-08T11:39:14;102746.56;;;13.24;51.16
71764;BME280;59602;52.142;5.408;2023-04-08T11:41:41;102751.25;;;13.24;50.57
71764;BME280;59602;52.142;5.408;2023-04-08T11:44:08;102744.38;;;13.30;52.72
71764;BME280;59602;52.142;5.408;2023-04-08T11:46:34;102753.25;;;13.27;46.35
71764;BME280;59602;52.142;5.408;2023-04-08T11:49:07;102747.00;;;13.11;48.24
71764;BME280;59602;52.142;5.408;2023-04-08T11:51:54;102754.66;;;13.21;49.16
71764;BME280;59602;52.142;5.408;2023-04-08T11:54:28;102754.97;;;13.32;49.46
71764;BME280;59602;52.142;5.408;2023-04-08T11:56:55;102754.97;;;13.47;48.76
71764;BME280;59602;52.142;5.408;2023-04-08T11:59:25;102755.16;;;13.39;48.32
71764;BME280;59602;52.142;5.408;2023-04-08T12:01:55;102759.03;;;13.38;46.92
71764;BME280;59602;52.142;5.408;2023-04-08T12:04:27;102757.53;;;13.40;46.89
71764;BME280;59602;52.142;5.408;2023-04-08T12:07:02;102757.38;;;13.49;47.74
71764;BME280;59602;52.142;5.408;2023-04-08T12:09:29;102754.91;;;13.60;46.87
71764;BME280;59602;52.142;5.408;2023-04-08T12:11:56;102755.16;;;13.70;44.96
71764;BME280;59602;52.142;5.408;2023-04-08T12:14:23;102758.50;;;13.64;42.87
71764;BME280;59602;52.142;5.408;2023-04-08T12:16:53;102747.66;;;13.67;43.93
71764;BME280;59602;52.142;5.408;2023-04-08T12:19:20;102750.09;;;13.88;47.21
71764;BME280;59602;52.142;5.408;2023-04-08T12:21:47;102743.22;;;13.95;46.01
71764;BME280;59602;52.142;5.408;2023-04-08T12:24:13;102748.88;;;13.86;46.80
71764;BME280;59602;52.142;5.408;2023-04-08T12:26:40;102749.78;;;13.74;47.18
71764;BME280;59602;52.142;5.408;2023-04-08T12:29:06;102750.06;;;13.69;45.75
71764;BME280;59602;52.142;5.408;2023-04-08T12:31:36;102741.41;;;13.83;47.08
71764;BME280;59602;52.142;5.408;2023-04-08T12:34:03;102755.03;;;13.99;43.15
71764;BME280;59602;52.142;5.408;2023-04-08T12:36:44;102752.22;;;13.95;43.73
71764;BME280;59602;52.142;5.408;2023-04-08T12:39:22;102743.75;;;14.00;45.02
71764;BME280;59602;52.142;5.408;2023-04-08T12:41:49;102744.25;;;14.06;44.66
71764;BME280;59602;52.142;5.408;2023-04-08T12:44:22;102743.47;;;14.05;45.00
71764;BME280;59602;52.142;5.408;2023-04-08T12:46:57;102741.72;;;13.97;46.64
71764;BME280;59602;52.142;5.408;2023-04-08T12:49:24;102746.16;;;13.86;46.04
71764;BME280;59602;52.142;5.408;2023-04-08T12:51:52;102742.03;;;13.76;46.07
71764;BME280;59602;52.142;5.408;2023-04-08T12:54:19;102739.19;;;13.73;48.27
71764;BME280;59602;52.142;5.408;2023-04-08T12:56:47;102747.13;;;13.78;48.44
71764;BME280;59602;52.142;5.408;2023-04-08T12:59:14;102740.41;;;13.75;48.37
71764;BME280;59602;52.142;5.408;2023-04-08T13:01:50;102743.69;;;13.81;50.24
71764;BME280;59602;52.142;5.408;2023-04-08T13:04:18;102747.81;;;13.90;49.84
71764;BME280;59602;52.142;5.408;2023-04-08T13:06:45;102745.81;;;13.87;48.94
71764;BME280;59602;52.142;5.408;2023-04-08T13:09:11;102749.59;;;13.83;50.53
71764;BME280;59602;52.142;5.408;2023-04-08T13:11:40;102743.25;;;13.79;50.83
71764;BME280;59602;52.142;5.408;2023-04-08T13:14:08;102752.78;;;13.69;52.62
71764;BME280;59602;52.142;5.408;2023-04-08T13:20:16;102746.88;;;13.51;54.40